Impacts METAR Board
IDs:

KBOS - Boston/Logan Intl, MA, US

Updated at: 1600 UTC 20 Aug 2019
Potential Impact None Slight Moderate High
Time 20/04Z 20/05Z 20/06Z 20/07Z 20/08Z 20/09Z 20/10Z 20/11Z 20/12Z 20/13Z 20/14Z 20/15Z 20/16Z
Temp79 77 77 78 77 76 75 76 78 80 82 82 82
Dewpt68 68 67 66 64 61 60 60 58 58 59 59 61
Altim29.95 29.96 29.97 29.98 30.00 30.01 30.03 30.05 30.06 30.07 30.08 30.07 30.07
VIS10 10 10 10 10 10 10 10 10 10 10 10 10
CIG-- -- -- -- -- -- -- -- -- -- -- -- --
CoverSCTSCTSCTCLRSCTFEWFEWFEWFEWFEWFEWFEWFEW
FltCatVFRVFRVFRVFRVFRVFRVFRVFRVFRVFRVFRVFRVFR
WX--------------------------
WDir280290270280270290300300300310100120
WSpd10 9 6 6 5 5 6 7 10 9 5 3 7
WGst-- -- -- -- -- -- -- -- -- -- -- -- --
Raw hourly METARs
KBOS 200354Z 28010KT 10SM FEW160 SCT220 26/20 A2995 RMK AO2 SLP143 T02610200
KBOS 200454Z 29009KT 10SM FEW160 SCT220 25/20 A2996 RMK AO2 SLP145 T02500200 403500233
KBOS 200554Z 27006KT 10SM FEW160 SCT220 25/19 A2997 RMK AO2 SLP147 T02500194 10278 20250 53004
KBOS 200654Z 28006KT 10SM CLR 26/19 A2998 RMK AO2 SLP153 T02560189
KBOS 200754Z 27005KT 10SM SCT160 25/18 A3000 RMK AO2 SLP157 T02500178
KBOS 200854Z 29005KT 10SM FEW160 24/16 A3001 RMK AO2 SLP162 T02440161 52015
KBOS 200954Z 30006KT 10SM FEW250 24/16 A3003 RMK AO2 SLP169 T02390156
KBOS 201054Z 30007KT 10SM FEW250 24/16 A3005 RMK AO2 SLP174 T02440156
KBOS 201154Z 30010KT 10SM FEW250 26/14 A3006 RMK AO2 SLP178 70001 T02560144 10256 20239 51016
KBOS 201254Z 31009KT 10SM FEW250 27/14 A3007 RMK AO2 SLP182 T02670144
KBOS 201354Z 01005KT 10SM FEW250 28/15 A3008 RMK AO2 SLP184 T02780150
KBOS 201454Z VRB03KT 10SM FEW250 28/15 A3007 RMK AO2 SLP182 T02780150 50003
KBOS 201554Z 12007KT 10SM FEW250 28/16 A3007 RMK AO2 SLP181 T02780161



Page loaded:  16:59 UTC  |   09:59 AM Pacific  |   10:59 AM Mountain  |   11:59 AM Central  |   12:59 PM Eastern

 

ADVISORIES

FORECASTS

FORECASTS

OBSERVATIONS

USER TOOLS

ABOUT US